createdAt,value
2017-12-01T00:00:03.076Z,91.29
2017-12-01T00:01:05.532Z,91.68
2017-12-01T00:02:08.021Z,91.90
2017-12-01T00:03:10.493Z,92.16
2017-12-01T00:04:12.967Z,92.17
2017-12-01T00:05:15.431Z,92.05
2017-12-01T00:06:17.909Z,91.58
2017-12-01T00:07:20.392Z,91.47
2017-12-01T00:08:22.865Z,91.58
2017-12-01T00:09:25.414Z,91.69
2017-12-01T00:10:27.879Z,91.05
2017-12-01T00:11:30.344Z,90.91
2017-12-01T00:12:32.826Z,91.24
2017-12-01T00:13:35.296Z,91.63
2017-12-01T00:14:37.805Z,91.71
2017-12-01T00:15:40.270Z,91.76
2017-12-01T00:16:42.740Z,91.84
2017-12-01T00:17:45.240Z,91.89
2017-12-01T00:18:47.700Z,91.16
2017-12-01T00:19:50.173Z,90.01
2017-12-01T00:20:52.627Z,90.50
2017-12-01T00:21:55.100Z,90.82
2017-12-01T00:22:57.579Z,90.73
2017-12-01T00:24:00.042Z,89.54
2017-12-01T00:25:02.495Z,88.05
2017-12-01T00:26:04.965Z,87.53
2017-12-01T00:27:07.418Z,87.45
2017-12-01T00:28:09.898Z,88.15
2017-12-01T00:29:12.364Z,88.62
2017-12-01T00:30:14.818Z,88.98
2017-12-01T00:31:17.330Z,89.40
2017-12-01T00:32:19.791Z,89.64
2017-12-01T00:33:22.279Z,90.11
2017-12-01T00:34:24.748Z,90.17
2017-12-01T00:35:27.228Z,90.16
2017-12-01T00:36:29.689Z,90.20
2017-12-01T00:37:32.151Z,90.73
2017-12-01T00:38:34.631Z,90.32
2017-12-01T00:39:37.110Z,89.01
2017-12-01T00:40:39.578Z,89.42
2017-12-01T00:41:42.062Z,89.54
2017-12-01T00:42:44.522Z,89.86
2017-12-01T00:43:47.008Z,90.08
2017-12-01T00:44:49.472Z,90.27
2017-12-01T00:45:51.931Z,90.34
2017-12-01T00:46:54.397Z,90.51
2017-12-01T00:47:56.850Z,90.69
2017-12-01T00:48:59.346Z,91.15
2017-12-01T00:50:01.816Z,91.26
2017-12-01T00:51:04.292Z,91.46
2017-12-01T00:52:06.784Z,91.73
2017-12-01T00:53:09.260Z,91.41
2017-12-01T00:54:11.758Z,91.22
2017-12-01T00:55:14.240Z,90.87
2017-12-01T00:56:16.707Z,90.80
2017-12-01T00:57:19.175Z,90.83
2017-12-01T00:58:21.658Z,91.04
2017-12-01T00:59:24.153Z,91.11
2017-12-01T01:00:26.606Z,90.94
2017-12-01T01:01:29.072Z,91.26
2017-12-01T01:02:31.540Z,91.33
2017-12-01T01:03:34.021Z,91.71
2017-12-01T01:04:36.498Z,91.93
2017-12-01T01:05:38.959Z,91.73
2017-12-01T01:06:41.440Z,91.59
2017-12-01T01:07:43.908Z,91.93
2017-12-01T01:08:46.393Z,92.32
2017-12-01T01:09:48.871Z,92.42
2017-12-01T01:10:51.326Z,92.51
2017-12-01T01:11:53.787Z,92.66
2017-12-01T01:12:56.257Z,92.83
2017-12-01T01:13:58.714Z,93.07
2017-12-01T01:15:01.217Z,93.24
2017-12-01T01:16:03.683Z,93.44
2017-12-01T01:17:06.193Z,93.57
2017-12-01T01:18:08.661Z,93.59
2017-12-01T01:19:11.119Z,93.71
2017-12-01T01:20:13.600Z,93.88
2017-12-01T01:21:16.074Z,94.00
2017-12-01T01:22:18.542Z,94.21
2017-12-01T01:23:21.017Z,94.42
2017-12-01T01:24:23.473Z,94.54
2017-12-01T01:25:25.946Z,94.62
2017-12-01T01:26:28.428Z,94.63
2017-12-01T01:27:30.886Z,94.65
2017-12-01T01:28:33.364Z,94.53
2017-12-01T01:29:35.833Z,94.50
2017-12-01T01:30:38.332Z,93.37
2017-12-01T01:31:40.800Z,92.33
2017-12-01T01:32:43.266Z,92.39
2017-12-01T01:33:45.727Z,92.72
2017-12-01T01:34:48.184Z,92.34
2017-12-01T01:35:50.667Z,92.49
2017-12-01T01:36:53.153Z,92.72
2017-12-01T01:37:55.609Z,92.83
2017-12-01T01:38:58.108Z,92.96
2017-12-01T01:40:00.589Z,93.04
2017-12-01T01:41:03.106Z,93.23
2017-12-01T01:42:05.563Z,93.47
2017-12-01T01:43:08.041Z,93.39
2017-12-01T01:44:10.502Z,93.47
2017-12-01T01:45:12.977Z,93.53
2017-12-01T01:46:15.473Z,93.35
2017-12-01T01:47:17.930Z,92.80
2017-12-01T01:48:20.395Z,91.87
2017-12-01T01:49:22.856Z,91.64
2017-12-01T01:50:25.315Z,91.86
2017-12-01T01:51:27.813Z,92.03
2017-12-01T01:52:30.292Z,91.90
2017-12-01T01:53:32.760Z,92.11
2017-12-01T01:54:35.228Z,91.17
2017-12-01T01:55:37.688Z,91.09
2017-12-01T01:56:40.163Z,90.94
2017-12-01T01:57:42.967Z,90.26
2017-12-01T01:58:45.423Z,90.44
2017-12-01T01:59:47.887Z,90.99
2017-12-01T02:00:50.362Z,91.35
2017-12-01T02:01:52.871Z,91.63
2017-12-01T02:02:55.328Z,91.98
2017-12-01T02:03:57.804Z,92.31
2017-12-01T02:05:00.289Z,92.56
2017-12-01T02:06:02.767Z,92.77
2017-12-01T02:07:05.261Z,92.99
2017-12-01T02:08:07.722Z,93.13
2017-12-01T02:09:10.180Z,93.21
2017-12-01T02:10:12.650Z,93.46
2017-12-01T02:11:15.170Z,93.67
2017-12-01T02:12:17.612Z,93.71
2017-12-01T02:13:20.084Z,93.50
2017-12-01T02:14:22.557Z,93.48
2017-12-01T02:15:25.014Z,92.52
2017-12-01T02:16:27.473Z,91.23
2017-12-01T02:17:29.947Z,90.51
2017-12-01T02:18:32.406Z,90.07
2017-12-01T02:19:34.878Z,90.17
2017-12-01T02:20:37.330Z,90.67
2017-12-01T02:21:39.812Z,90.63
2017-12-01T02:22:42.291Z,90.75
2017-12-01T02:23:44.765Z,91.26
2017-12-01T02:24:47.237Z,91.44
2017-12-01T02:25:49.691Z,91.14
2017-12-01T02:26:52.142Z,91.22
2017-12-01T02:27:54.636Z,90.87
2017-12-01T02:28:57.110Z,90.99
2017-12-01T02:29:59.566Z,91.47
2017-12-01T02:31:02.036Z,90.84
2017-12-01T02:32:04.495Z,90.03
2017-12-01T02:33:07.035Z,90.03
2017-12-01T02:34:09.499Z,90.46
2017-12-01T02:35:11.971Z,90.59
2017-12-01T02:36:14.427Z,90.33
2017-12-01T02:37:16.897Z,90.69
2017-12-01T02:38:19.394Z,90.74
2017-12-01T02:39:21.851Z,90.53
2017-12-01T02:40:24.315Z,90.87
2017-12-01T02:41:26.787Z,91.38
2017-12-01T02:42:29.277Z,91.67
2017-12-01T02:43:31.795Z,91.78
2017-12-01T02:44:34.269Z,91.00
2017-12-01T02:45:36.745Z,91.03
2017-12-01T02:46:39.203Z,91.14
2017-12-01T02:47:41.666Z,91.59
2017-12-01T02:48:44.166Z,91.71
2017-12-01T02:49:46.647Z,91.78
2017-12-01T02:50:49.108Z,91.71
2017-12-01T02:51:51.567Z,91.90
2017-12-01T02:52:54.142Z,92.06
2017-12-01T02:53:56.646Z,92.24
2017-12-01T02:54:59.112Z,92.27
2017-12-01T02:56:01.589Z,92.41
2017-12-01T02:57:04.065Z,92.63
2017-12-01T02:58:06.527Z,92.99
2017-12-01T02:59:09.006Z,92.89
2017-12-01T03:00:11.482Z,92.69
2017-12-01T03:01:13.954Z,92.68
2017-12-01T03:02:16.429Z,92.87
2017-12-01T03:03:18.887Z,92.92
2017-12-01T03:04:21.381Z,92.96
2017-12-01T03:05:23.857Z,93.06
2017-12-01T03:06:26.322Z,93.29
2017-12-01T03:07:28.851Z,93.41
2017-12-01T03:08:31.318Z,93.57
2017-12-01T03:09:33.949Z,93.63
2017-12-01T03:10:36.425Z,93.54
2017-12-01T03:11:38.896Z,93.46
2017-12-01T03:12:41.378Z,93.58
2017-12-01T03:13:43.836Z,93.78
2017-12-01T03:14:46.320Z,93.88
2017-12-01T03:15:48.775Z,93.78
2017-12-01T03:16:51.235Z,93.53
2017-12-01T03:17:53.695Z,92.51
2017-12-01T03:18:56.151Z,92.06
2017-12-01T03:19:58.631Z,92.04
2017-12-01T03:21:01.105Z,91.95
2017-12-01T03:22:03.568Z,91.08
2017-12-01T03:23:06.035Z,91.31
2017-12-01T03:24:08.490Z,91.54
2017-12-01T03:25:10.984Z,91.58
2017-12-01T03:26:13.444Z,91.92
2017-12-01T03:27:15.913Z,92.22
2017-12-01T03:28:18.388Z,92.40
2017-12-01T03:29:20.873Z,92.60
2017-12-01T03:30:23.372Z,92.65
2017-12-01T03:31:25.843Z,92.98
2017-12-01T03:32:28.312Z,93.09
2017-12-01T03:33:30.766Z,93.15
2017-12-01T03:34:33.226Z,93.15
2017-12-01T03:35:35.726Z,93.11
2017-12-01T03:36:38.201Z,93.18
2017-12-01T03:37:40.673Z,92.25
2017-12-01T03:38:43.158Z,91.78
2017-12-01T03:39:45.630Z,91.60
2017-12-01T03:40:48.100Z,91.85
2017-12-01T03:41:50.558Z,92.09
2017-12-01T03:42:53.024Z,92.18
2017-12-01T03:43:55.507Z,92.33
2017-12-01T03:44:57.966Z,92.70
2017-12-01T03:46:00.506Z,92.98
2017-12-01T03:47:02.985Z,93.36
2017-12-01T03:48:05.527Z,93.59
2017-12-01T03:49:07.990Z,93.76
2017-12-01T03:50:10.598Z,93.90
2017-12-01T03:51:13.648Z,94.11
2017-12-01T03:52:16.125Z,94.16
2017-12-01T03:53:18.623Z,94.15
2017-12-01T03:54:21.078Z,94.26
2017-12-01T03:55:23.558Z,92.63
2017-12-01T03:56:26.069Z,92.05
2017-12-01T03:57:28.549Z,91.31
2017-12-01T03:58:31.026Z,91.34
2017-12-01T03:59:33.506Z,91.44
2017-12-01T04:00:35.975Z,91.65
2017-12-01T04:01:38.471Z,92.03
2017-12-01T04:02:40.956Z,91.94
2017-12-01T04:03:43.414Z,92.05
2017-12-01T04:04:45.869Z,91.59
2017-12-01T04:05:48.326Z,91.78
2017-12-01T04:06:50.829Z,92.32
2017-12-01T04:07:53.300Z,92.72
2017-12-01T04:08:55.777Z,93.15
2017-12-01T04:09:58.248Z,93.35
2017-12-01T04:11:00.717Z,93.36
2017-12-01T04:12:03.277Z,93.52
2017-12-01T04:13:05.730Z,93.70
2017-12-01T04:14:08.201Z,93.51
2017-12-01T04:15:10.668Z,93.23
2017-12-01T04:16:13.136Z,92.82
2017-12-01T04:17:15.625Z,92.86
2017-12-01T04:18:18.129Z,92.81
2017-12-01T04:19:20.600Z,92.83
2017-12-01T04:20:23.054Z,92.87
2017-12-01T04:21:25.520Z,92.49
2017-12-01T04:22:28.021Z,92.10
2017-12-01T04:23:30.504Z,91.97
2017-12-01T04:24:32.981Z,91.77
2017-12-01T04:25:35.443Z,91.54
2017-12-01T04:26:37.903Z,91.52
2017-12-01T04:27:40.392Z,91.71
2017-12-01T04:28:42.851Z,91.78
2017-12-01T04:29:45.310Z,91.98
2017-12-01T04:30:47.765Z,92.13
2017-12-01T04:31:50.245Z,92.42
2017-12-01T04:32:52.726Z,92.50
2017-12-01T04:33:55.275Z,92.67
2017-12-01T04:34:57.734Z,92.78
2017-12-01T04:36:00.230Z,93.00
2017-12-01T04:37:02.692Z,92.96
2017-12-01T04:38:05.181Z,92.52
2017-12-01T04:39:07.659Z,91.85
2017-12-01T04:40:10.141Z,91.88
2017-12-01T04:41:12.609Z,91.55
2017-12-01T04:42:15.085Z,91.62
2017-12-01T04:43:17.604Z,91.84
2017-12-01T04:44:20.076Z,91.98
2017-12-01T04:45:22.559Z,92.30
2017-12-01T04:46:25.016Z,92.48
2017-12-01T04:47:27.470Z,92.20
2017-12-01T04:48:29.946Z,91.63
2017-12-01T04:49:32.403Z,91.64
2017-12-01T04:50:34.862Z,91.99
2017-12-01T04:51:37.323Z,92.38
2017-12-01T04:52:39.797Z,92.54
2017-12-01T04:53:42.303Z,92.86
2017-12-01T04:54:44.754Z,93.07
2017-12-01T04:55:47.253Z,93.14
2017-12-01T04:56:49.744Z,93.34
2017-12-01T04:57:52.220Z,93.47
2017-12-01T04:58:54.715Z,93.55
2017-12-01T04:59:57.186Z,93.61
2017-12-01T05:00:59.680Z,93.78
2017-12-01T05:02:02.161Z,93.92
2017-12-01T05:03:04.652Z,94.47
2017-12-01T05:04:07.135Z,94.69
2017-12-01T05:05:09.595Z,94.96
2017-12-01T05:06:12.072Z,94.94
2017-12-01T05:07:14.549Z,94.85
2017-12-01T05:08:17.021Z,94.79
2017-12-01T05:09:19.499Z,94.75
2017-12-01T05:10:21.980Z,94.77
2017-12-01T05:11:24.468Z,94.52
2017-12-01T05:12:26.930Z,94.48
2017-12-01T05:13:29.447Z,94.55
2017-12-01T05:14:31.949Z,94.55
2017-12-01T05:15:34.414Z,94.55
2017-12-01T05:16:36.892Z,94.56
2017-12-01T05:17:39.364Z,94.63
2017-12-01T05:18:41.874Z,94.69
2017-12-01T05:19:44.374Z,94.79
2017-12-01T05:20:46.840Z,94.83
2017-12-01T05:21:49.320Z,94.99
2017-12-01T05:22:51.801Z,95.07
2017-12-01T05:23:54.289Z,95.06
2017-12-01T05:24:56.793Z,95.02
2017-12-01T05:25:59.251Z,95.02
2017-12-01T05:27:01.724Z,95.06
2017-12-01T05:28:04.203Z,95.12
2017-12-01T05:29:06.681Z,95.14
2017-12-01T05:30:09.194Z,95.19
2017-12-01T05:31:11.656Z,95.21
2017-12-01T05:32:14.119Z,95.23
2017-12-01T05:33:16.584Z,95.27
2017-12-01T05:34:19.055Z,95.27
2017-12-01T05:35:21.535Z,95.26
2017-12-01T05:36:24.003Z,95.29
2017-12-01T05:37:26.469Z,95.37
2017-12-01T05:38:28.944Z,95.37
2017-12-01T05:39:31.421Z,95.43
2017-12-01T05:40:33.906Z,95.47
2017-12-01T05:41:36.376Z,95.55
2017-12-01T05:42:38.843Z,95.58
2017-12-01T05:43:41.321Z,95.58
2017-12-01T05:44:43.841Z,95.63
2017-12-01T05:45:46.315Z,95.62
2017-12-01T05:46:48.806Z,95.55
2017-12-01T05:47:51.285Z,95.25
2017-12-01T05:48:53.764Z,94.47
2017-12-01T05:49:56.232Z,94.05
2017-12-01T05:50:58.729Z,94.10
2017-12-01T05:52:01.187Z,94.22
2017-12-01T05:53:03.651Z,94.20
2017-12-01T05:54:06.149Z,94.27
2017-12-01T05:55:08.615Z,94.24
2017-12-01T05:56:11.121Z,94.31
2017-12-01T05:57:13.648Z,94.56
2017-12-01T05:58:16.134Z,94.88
2017-12-01T05:59:18.608Z,95.11
2017-12-01T06:00:21.067Z,95.30
2017-12-01T06:01:23.550Z,95.59
2017-12-01T06:02:26.012Z,95.83
2017-12-01T06:03:28.486Z,95.95
2017-12-01T06:04:30.954Z,96.08
2017-12-01T06:05:33.457Z,96.27
2017-12-01T06:06:35.968Z,96.32
2017-12-01T06:07:38.449Z,96.37
2017-12-01T06:08:40.910Z,96.39
2017-12-01T06:09:43.396Z,96.35
2017-12-01T06:10:45.878Z,96.33
2017-12-01T06:11:48.364Z,96.05
2017-12-01T06:12:50.840Z,95.89
2017-12-01T06:13:53.310Z,95.69
2017-12-01T06:14:55.795Z,95.29
2017-12-01T06:15:58.406Z,94.99
2017-12-01T06:17:00.939Z,94.96
2017-12-01T06:18:03.429Z,95.07
2017-12-01T06:19:05.921Z,94.87
2017-12-01T06:20:08.397Z,94.64
2017-12-01T06:21:10.888Z,94.42
2017-12-01T06:22:13.396Z,94.47
2017-12-01T06:23:15.872Z,94.56
2017-12-01T06:24:18.361Z,94.29
2017-12-01T06:25:20.833Z,94.41
2017-12-01T06:26:23.309Z,94.38
2017-12-01T06:27:25.818Z,94.48
2017-12-01T06:28:28.313Z,94.57
2017-12-01T06:29:30.782Z,95.00
2017-12-01T06:30:33.248Z,95.24
2017-12-01T06:31:35.743Z,95.28
2017-12-01T06:32:38.290Z,94.46
2017-12-01T06:33:40.773Z,94.20
2017-12-01T06:34:43.284Z,94.10
2017-12-01T06:35:45.743Z,94.11
2017-12-01T06:36:48.237Z,94.39
2017-12-01T06:37:50.739Z,94.35
2017-12-01T06:38:53.226Z,93.97
2017-12-01T06:39:55.722Z,94.15
2017-12-01T06:40:58.195Z,94.08
2017-12-01T06:42:00.664Z,94.01
2017-12-01T06:43:03.203Z,93.68
2017-12-01T06:44:05.668Z,93.45
2017-12-01T06:45:08.146Z,93.40
2017-12-01T06:46:10.625Z,93.72
2017-12-01T06:47:13.086Z,94.08
2017-12-01T06:48:15.590Z,93.95
2017-12-01T06:49:18.065Z,93.79
2017-12-01T06:50:20.535Z,93.75
2017-12-01T06:51:23.066Z,93.90
2017-12-01T06:52:25.534Z,93.93
2017-12-01T06:53:28.016Z,93.75
2017-12-01T06:54:30.483Z,93.51
2017-12-01T06:55:32.955Z,93.37
2017-12-01T06:56:35.433Z,93.57
2017-12-01T06:57:37.907Z,94.26
2017-12-01T06:58:40.391Z,94.22
2017-12-01T06:59:42.953Z,94.04
2017-12-01T07:00:45.794Z,93.57
2017-12-01T07:01:48.308Z,93.40
2017-12-01T07:02:50.767Z,93.42
2017-12-01T07:03:53.269Z,93.79
2017-12-01T07:04:55.756Z,93.76
2017-12-01T07:05:58.354Z,93.62
2017-12-01T07:07:00.827Z,93.22
2017-12-01T07:08:03.290Z,93.22
2017-12-01T07:09:05.789Z,93.15
2017-12-01T07:10:08.264Z,93.13
2017-12-01T07:11:10.722Z,93.66
2017-12-01T07:12:13.197Z,93.77
2017-12-01T07:13:15.655Z,93.50
2017-12-01T07:14:18.139Z,93.36
2017-12-01T07:15:20.594Z,93.47
2017-12-01T07:16:23.050Z,93.45
2017-12-01T07:17:25.518Z,93.75
2017-12-01T07:18:27.987Z,94.00
2017-12-01T07:19:30.476Z,93.49
2017-12-01T07:20:32.951Z,92.62
2017-12-01T07:21:35.414Z,91.67
2017-12-01T07:22:37.888Z,91.15
2017-12-01T07:23:40.461Z,91.81
2017-12-01T07:24:42.968Z,92.12
2017-12-01T07:25:45.449Z,91.07
2017-12-01T07:26:59.715Z,91.15
2017-12-01T07:28:02.174Z,90.23
2017-12-01T07:29:04.667Z,90.29
2017-12-01T07:30:07.165Z,89.86
2017-12-01T07:31:09.704Z,89.67
2017-12-01T07:32:12.162Z,89.43
2017-12-01T07:33:14.618Z,90.97
2017-12-01T07:34:17.093Z,90.72
2017-12-01T07:35:19.597Z,90.99
2017-12-01T07:36:22.060Z,90.29
2017-12-01T07:37:24.537Z,90.42
2017-12-01T07:38:27.013Z,90.25
2017-12-01T07:39:29.474Z,90.54
2017-12-01T07:40:31.987Z,91.22
2017-12-01T07:41:34.447Z,89.89
2017-12-01T07:42:36.921Z,90.72
2017-12-01T07:43:39.404Z,90.94
2017-12-01T07:46:23.747Z,90.31
2017-12-01T07:47:26.219Z,90.71
2017-12-01T07:48:28.687Z,91.35
2017-12-01T07:49:31.169Z,90.15
2017-12-01T07:50:33.645Z,88.63
2017-12-01T07:51:36.121Z,89.07
2017-12-01T07:52:38.653Z,88.24
2017-12-01T07:53:41.130Z,88.46
2017-12-01T07:54:43.617Z,89.24
2017-12-01T07:55:46.096Z,89.76
2017-12-01T07:56:48.570Z,89.60
2017-12-01T07:57:51.048Z,89.88
2017-12-01T07:58:53.604Z,90.04
2017-12-01T07:59:56.073Z,89.59
2017-12-01T08:00:58.561Z,89.43
2017-12-01T08:02:01.048Z,89.87
2017-12-01T08:03:03.514Z,90.32
2017-12-01T08:04:05.992Z,90.80
2017-12-01T08:05:08.451Z,91.06
2017-12-01T08:06:10.916Z,90.76
2017-12-01T08:07:13.396Z,91.07
2017-12-01T08:08:15.854Z,90.05
2017-12-01T08:09:18.331Z,90.17
2017-12-01T08:10:20.792Z,90.10
2017-12-01T08:11:23.257Z,89.64
2017-12-01T08:12:25.741Z,89.52
2017-12-01T08:13:28.217Z,89.73
2017-12-01T08:14:30.693Z,90.08
2017-12-01T08:15:33.154Z,89.91
2017-12-01T08:16:47.474Z,89.85
2017-12-01T08:17:49.949Z,90.22
2017-12-01T08:19:02.408Z,90.76
2017-12-01T08:20:04.871Z,90.76
2017-12-01T08:21:07.355Z,90.79
2017-12-01T08:22:21.428Z,90.79
2017-12-01T08:25:16.160Z,90.31
2017-12-01T08:26:18.622Z,90.27
2017-12-01T08:27:21.117Z,90.29
2017-12-01T08:28:23.574Z,90.66
2017-12-01T08:29:26.035Z,90.45
2017-12-01T08:30:28.503Z,90.65
2017-12-01T08:31:30.971Z,90.86
2017-12-01T08:32:33.465Z,91.02
2017-12-01T08:33:35.941Z,89.47
2017-12-01T08:34:38.417Z,89.33
2017-12-01T08:35:40.879Z,88.78
2017-12-01T08:36:43.340Z,89.12
2017-12-01T08:37:45.823Z,89.32
2017-12-01T08:38:48.296Z,89.86
2017-12-01T08:39:50.758Z,88.94
2017-12-01T08:40:53.234Z,87.71
2017-12-01T08:41:55.702Z,88.31
2017-12-01T08:42:58.205Z,87.89
2017-12-01T08:44:00.676Z,88.00
2017-12-01T08:45:03.150Z,87.29
2017-12-01T08:46:05.629Z,85.73
2017-12-01T08:47:08.086Z,86.61
2017-12-01T08:48:10.596Z,85.44
2017-12-01T08:49:13.073Z,85.25
2017-12-01T08:50:15.553Z,85.29
2017-12-01T08:51:18.011Z,85.37
2017-12-01T08:52:20.474Z,85.21
2017-12-01T08:53:22.967Z,85.45
2017-12-01T08:54:25.426Z,86.32
2017-12-01T08:55:27.912Z,86.82
2017-12-01T08:56:30.370Z,85.11
2017-12-01T08:57:32.855Z,85.31
2017-12-01T08:58:35.338Z,85.96
2017-12-01T08:59:37.813Z,85.82
2017-12-01T09:00:40.271Z,86.06
2017-12-01T09:01:42.731Z,86.50
2017-12-01T09:02:45.212Z,85.25
2017-12-01T09:03:47.711Z,84.54
2017-12-01T09:04:50.186Z,84.06
2017-12-01T09:05:52.660Z,83.77
2017-12-01T09:06:55.123Z,84.78
2017-12-01T09:07:57.605Z,85.61
2017-12-01T09:09:00.096Z,86.08
2017-12-01T09:10:02.562Z,86.44
2017-12-01T09:11:05.021Z,86.08
2017-12-01T09:12:07.486Z,86.52
2017-12-01T09:13:09.949Z,86.27
2017-12-01T09:14:12.474Z,83.90
2017-12-01T09:15:14.951Z,82.38
2017-12-01T09:16:17.446Z,83.07
2017-12-01T09:17:19.906Z,82.43
2017-12-01T09:18:22.378Z,82.37
2017-12-01T09:19:25.342Z,81.93
2017-12-01T09:20:27.812Z,82.56
2017-12-01T09:21:30.390Z,82.07
2017-12-01T09:22:32.864Z,81.29
2017-12-01T09:23:35.336Z,82.03
2017-12-01T09:24:37.822Z,80.77
2017-12-01T09:25:40.297Z,79.75
2017-12-01T09:26:42.781Z,80.46
2017-12-01T09:27:45.263Z,80.77
2017-12-01T09:28:47.740Z,80.63
2017-12-01T09:29:50.215Z,81.99
2017-12-01T09:30:52.695Z,81.90
2017-12-01T09:31:55.158Z,80.63
2017-12-01T09:32:57.623Z,80.56
2017-12-01T09:34:00.087Z,81.89
2017-12-01T09:35:02.587Z,79.80
2017-12-01T09:36:05.042Z,81.10
2017-12-01T09:37:07.510Z,79.58
2017-12-01T09:38:09.987Z,79.05
2017-12-01T09:39:12.446Z,77.68
2017-12-01T09:40:14.931Z,79.35
2017-12-01T09:41:17.399Z,80.76
2017-12-01T09:42:19.853Z,81.10
2017-12-01T09:43:22.333Z,81.73
2017-12-01T09:44:24.821Z,80.78
2017-12-01T09:45:27.428Z,81.36
2017-12-01T09:46:29.987Z,80.45
2017-12-01T09:47:32.466Z,81.50
2017-12-01T09:48:34.941Z,80.13
2017-12-01T09:49:37.399Z,80.15
2017-12-01T09:50:39.879Z,79.00
2017-12-01T09:51:42.407Z,79.45
2017-12-01T09:52:44.881Z,80.34
2017-12-01T09:53:47.354Z,80.29
2017-12-01T09:54:49.814Z,79.79
2017-12-01T09:55:52.311Z,80.94
2017-12-01T09:56:54.789Z,79.51
2017-12-01T09:57:57.265Z,79.51
2017-12-01T09:58:59.732Z,80.03
2017-12-01T10:00:02.190Z,80.02
2017-12-01T10:01:04.689Z,80.56
2017-12-01T10:02:07.164Z,79.75
2017-12-01T10:03:09.626Z,78.21
2017-12-01T10:04:12.084Z,78.86
2017-12-01T10:05:14.559Z,77.96
2017-12-01T10:06:17.040Z,80.04
2017-12-01T10:07:19.512Z,78.34
2017-12-01T10:08:21.996Z,77.63
2017-12-01T10:09:24.485Z,72.73
2017-12-01T10:10:26.963Z,75.46
2017-12-01T10:11:29.473Z,73.43
2017-12-01T10:12:31.955Z,72.72
2017-12-01T10:13:34.422Z,68.69
2017-12-01T10:14:36.897Z,67.93
2017-12-01T10:15:39.420Z,64.62
2017-12-01T10:16:41.916Z,62.32
2017-12-01T10:17:44.382Z,60.19
2017-12-01T10:18:46.867Z,60.26
2017-12-01T10:19:49.326Z,61.26
2017-12-01T10:20:51.808Z,60.92
2017-12-01T10:21:54.292Z,62.51
2017-12-01T10:22:56.751Z,63.31
2017-12-01T10:23:59.283Z,63.62
2017-12-01T10:25:01.757Z,64.18
2017-12-01T10:26:04.215Z,65.51
2017-12-01T10:27:06.712Z,66.21
2017-12-01T10:28:09.189Z,68.00
2017-12-01T10:29:11.664Z,67.13
2017-12-01T10:30:14.126Z,67.16
2017-12-01T10:31:16.597Z,69.14
2017-12-01T10:32:19.094Z,70.34
2017-12-01T10:33:21.560Z,71.92
2017-12-01T10:34:24.024Z,70.63
2017-12-01T10:35:26.491Z,68.52
2017-12-01T10:36:28.955Z,69.05
2017-12-01T10:37:31.432Z,71.64
2017-12-01T10:38:33.984Z,71.32
2017-12-01T10:39:36.457Z,70.80
2017-12-01T10:40:38.933Z,73.94
2017-12-01T10:41:41.391Z,74.11
2017-12-01T10:42:43.893Z,72.58
2017-12-01T10:43:46.391Z,72.67
2017-12-01T10:44:48.869Z,73.25
2017-12-01T10:45:51.330Z,72.27
2017-12-01T10:46:53.864Z,71.65
2017-12-01T10:47:56.364Z,72.14
2017-12-01T10:48:58.884Z,72.18
2017-12-01T10:50:01.361Z,73.17
2017-12-01T10:51:03.833Z,73.44
2017-12-01T10:52:06.295Z,74.52
2017-12-01T10:53:08.798Z,75.29
2017-12-01T10:54:11.274Z,75.87
2017-12-01T10:55:13.802Z,75.66
2017-12-01T10:56:16.259Z,74.71
2017-12-01T10:57:18.739Z,74.48
2017-12-01T10:58:21.241Z,73.57
2017-12-01T10:59:23.922Z,73.31
2017-12-01T11:00:26.524Z,71.61
2017-12-01T11:01:29.010Z,73.62
2017-12-01T11:02:31.612Z,72.47
2017-12-01T11:03:34.135Z,71.97
2017-12-01T11:04:36.654Z,70.15
2017-12-01T11:05:39.126Z,70.93
2017-12-01T11:06:41.601Z,70.23
2017-12-01T11:07:44.082Z,72.78
2017-12-01T11:08:46.594Z,71.45
2017-12-01T11:09:49.064Z,71.47
2017-12-01T11:10:51.541Z,71.54
2017-12-01T11:11:54.012Z,72.04
2017-12-01T11:12:56.484Z,72.06
2017-12-01T11:13:58.983Z,72.88
2017-12-01T11:15:01.455Z,72.32
2017-12-01T11:16:03.933Z,73.00
2017-12-01T11:17:06.413Z,73.26
2017-12-01T11:18:08.901Z,72.96
2017-12-01T11:19:11.399Z,74.42
2017-12-01T11:20:13.885Z,74.06
2017-12-01T11:21:16.366Z,74.62
2017-12-01T11:22:18.960Z,74.52
2017-12-01T11:23:21.418Z,73.41
2017-12-01T11:24:23.917Z,73.89
2017-12-01T11:25:26.379Z,73.53
2017-12-01T11:26:28.889Z,73.77
2017-12-01T11:27:31.354Z,73.18
2017-12-01T11:28:33.829Z,73.97
2017-12-01T11:29:36.324Z,73.57
2017-12-01T11:30:38.782Z,72.27
2017-12-01T11:31:41.257Z,71.70
2017-12-01T11:32:43.728Z,70.42
2017-12-01T11:33:46.209Z,66.91
2017-12-01T11:34:48.767Z,65.85
2017-12-01T11:35:51.245Z,63.54
2017-12-01T11:36:53.720Z,60.24
2017-12-01T11:37:56.174Z,60.53
2017-12-01T11:38:58.658Z,55.10
2017-12-01T11:40:01.150Z,52.42
2017-12-01T11:41:03.630Z,49.73
2017-12-01T11:42:06.109Z,49.10
2017-12-01T11:43:08.575Z,47.61
2017-12-01T11:44:11.049Z,45.34
2017-12-01T11:45:13.531Z,45.73
2017-12-01T11:46:16.012Z,45.21
2017-12-01T11:47:18.493Z,46.41
2017-12-01T11:48:21.006Z,48.42
2017-12-01T11:49:23.485Z,50.73
2017-12-01T11:50:25.989Z,49.47
2017-12-01T11:51:28.458Z,51.41
2017-12-01T11:52:30.923Z,52.70
2017-12-01T11:53:33.390Z,54.57
2017-12-01T11:54:35.860Z,56.16
2017-12-01T11:55:38.339Z,56.32
2017-12-01T11:56:40.803Z,57.22
2017-12-01T11:57:44.046Z,56.80
2017-12-01T11:58:46.518Z,57.43
2017-12-01T11:59:48.988Z,54.41
2017-12-01T12:00:54.030Z,54.49
2017-12-01T12:01:56.490Z,48.96
2017-12-01T12:02:58.970Z,45.12
2017-12-01T12:04:01.448Z,44.17
2017-12-01T12:05:03.929Z,42.96
2017-12-01T12:06:06.409Z,45.82
2017-12-01T12:07:08.885Z,47.09
2017-12-01T12:08:11.357Z,44.11
2017-12-01T12:09:13.822Z,43.18
2017-12-01T12:10:16.290Z,42.44
2017-12-01T12:11:18.769Z,41.99
2017-12-01T12:12:21.236Z,42.25
2017-12-01T12:13:23.723Z,46.05
2017-12-01T12:14:26.200Z,45.65
2017-12-01T12:15:28.663Z,43.10
2017-12-01T12:16:31.153Z,45.73
2017-12-01T12:17:33.634Z,46.75
2017-12-01T12:18:36.106Z,47.63
2017-12-01T12:19:38.588Z,49.74
2017-12-01T12:20:41.083Z,50.81
2017-12-01T12:21:43.569Z,50.59
2017-12-01T12:22:46.040Z,49.30
2017-12-01T12:23:48.515Z,49.87
2017-12-01T12:24:50.979Z,50.06
2017-12-01T12:25:53.595Z,52.17
2017-12-01T12:26:56.083Z,51.79
2017-12-01T12:27:58.548Z,52.50
2017-12-01T12:29:01.008Z,55.45
2017-12-01T12:30:03.524Z,59.58
2017-12-01T12:31:05.987Z,58.55
2017-12-01T12:32:08.449Z,60.11
2017-12-01T12:33:10.926Z,60.63
2017-12-01T12:34:13.391Z,62.12
2017-12-01T12:35:15.877Z,60.61
2017-12-01T12:36:18.334Z,62.20
2017-12-01T12:37:20.815Z,61.33
2017-12-01T12:38:23.290Z,63.39
2017-12-01T12:39:25.765Z,64.42
2017-12-01T12:40:28.226Z,63.72
2017-12-01T12:41:30.762Z,63.51
2017-12-01T12:42:33.250Z,64.06
2017-12-01T12:43:35.725Z,62.92
2017-12-01T12:44:38.183Z,62.15
2017-12-01T12:45:40.638Z,63.53
2017-12-01T12:46:43.090Z,63.82
2017-12-01T12:47:45.564Z,61.87
2017-12-01T12:48:48.040Z,62.44
2017-12-01T12:49:50.501Z,61.99
2017-12-01T12:50:53.094Z,60.53
2017-12-01T12:51:55.572Z,59.24
2017-12-01T12:52:58.030Z,58.89
2017-12-01T12:54:00.507Z,59.78
2017-12-01T12:55:02.990Z,60.11
2017-12-01T12:56:05.476Z,60.53
2017-12-01T12:57:08.040Z,61.85
2017-12-01T12:58:10.512Z,60.12
2017-12-01T12:59:12.976Z,58.75
2017-12-01T13:00:15.433Z,59.28
2017-12-01T13:01:17.912Z,57.70
2017-12-01T13:02:20.384Z,58.54
2017-12-01T13:03:22.866Z,59.54
2017-12-01T13:04:25.326Z,57.75
2017-12-01T13:05:27.805Z,57.90
2017-12-01T13:06:30.282Z,60.09
2017-12-01T13:07:32.815Z,60.20
2017-12-01T13:08:35.280Z,59.07
2017-12-01T13:09:37.770Z,59.31
2017-12-01T13:10:40.245Z,60.04
2017-12-01T13:11:42.730Z,59.47
2017-12-01T13:12:45.195Z,61.16
2017-12-01T13:13:47.673Z,61.88
2017-12-01T13:14:50.152Z,62.43
2017-12-01T13:15:52.640Z,63.52
2017-12-01T13:16:55.153Z,63.89
2017-12-01T13:17:57.619Z,65.08
2017-12-01T13:19:00.113Z,64.88
2017-12-01T13:20:02.603Z,66.61
2017-12-01T13:21:05.087Z,67.24
2017-12-01T13:22:07.574Z,66.79
2017-12-01T13:23:10.063Z,67.24
2017-12-01T13:24:12.564Z,67.62
2017-12-01T13:25:15.055Z,68.52
2017-12-01T13:26:17.551Z,68.83
2017-12-01T13:27:20.019Z,67.91
2017-12-01T13:28:22.496Z,68.65